createdAt,value
2018-08-20T00:00:19.416Z,98318.36
2018-08-20T00:02:50.523Z,98312.92
2018-08-20T00:05:21.431Z,98319.55
2018-08-20T00:07:52.555Z,98313.89
2018-08-20T00:10:24.037Z,98317.21
2018-08-20T00:12:54.494Z,98315.95
2018-08-20T00:15:25.790Z,98314.02
2018-08-20T00:17:56.210Z,98312.34
2018-08-20T00:20:27.040Z,98309.14
2018-08-20T00:23:04.922Z,98313.23
2018-08-20T00:25:36.330Z,98308.73
2018-08-20T00:28:07.387Z,98308.56
2018-08-20T00:30:38.031Z,98310.25
2018-08-20T00:33:08.582Z,98313.06
2018-08-20T00:35:38.582Z,98307.96
2018-08-20T00:38:08.945Z,98314.39
2018-08-20T00:40:40.183Z,98315.03
2018-08-20T00:43:10.344Z,98312.70
2018-08-20T00:45:41.752Z,98318.01
2018-08-20T00:48:12.720Z,98322.47
2018-08-20T00:50:44.089Z,98325.96
2018-08-20T00:53:15.711Z,98325.16
2018-08-20T00:55:47.126Z,98324.84
2018-08-20T00:58:17.382Z,98324.87
2018-08-20T01:00:48.048Z,98321.02
2018-08-20T01:03:19.174Z,98328.02
2018-08-20T01:05:49.907Z,98329.25
2018-08-20T01:08:20.520Z,98329.89
2018-08-20T01:10:51.560Z,98320.77
2018-08-20T01:13:23.276Z,98324.47
2018-08-20T01:15:55.558Z,98317.08
2018-08-20T01:18:25.806Z,98319.97
2018-08-20T01:20:57.090Z,98319.38
2018-08-20T01:23:28.335Z,98320.81
2018-08-20T01:25:59.502Z,98317.80
2018-08-20T01:28:31.564Z,98314.86
2018-08-20T01:31:02.046Z,98315.97
2018-08-20T01:33:33.812Z,98309.84
2018-08-20T01:36:04.386Z,98308.77
2018-08-20T01:38:34.442Z,98311.44
2018-08-20T01:41:06.660Z,98311.70
2018-08-20T01:43:39.188Z,98313.75
2018-08-20T01:46:09.754Z,98304.86
2018-08-20T01:48:41.410Z,98311.46
2018-08-20T01:51:11.889Z,98313.05
2018-08-20T01:53:43.771Z,98313.55
2018-08-20T01:56:14.175Z,98314.77
2018-08-20T01:58:45.935Z,98307.30
2018-08-20T02:01:16.602Z,98309.83
2018-08-20T02:03:48.197Z,98306.20
2018-08-20T02:06:19.215Z,98313.09
2018-08-20T02:08:49.976Z,98308.75
2018-08-20T02:11:22.084Z,98307.19
2018-08-20T02:13:55.591Z,98313.56
2018-08-20T02:16:26.061Z,98313.17
2018-08-20T02:18:57.667Z,98313.31
2018-08-20T02:21:28.456Z,98306.10
2018-08-20T02:23:59.197Z,98306.34
2018-08-20T02:26:30.279Z,98304.55
2018-08-20T02:29:01.443Z,98303.33
2018-08-20T02:31:31.565Z,98307.53
2018-08-20T02:34:02.835Z,98309.20
2018-08-20T02:36:35.191Z,98304.39
2018-08-20T02:39:10.075Z,98311.73
2018-08-20T02:41:43.183Z,98305.34
2018-08-20T02:44:14.091Z,98306.05
2018-08-20T02:46:54.637Z,98308.84
2018-08-20T02:49:25.667Z,98302.22
2018-08-20T02:51:56.053Z,98307.01
2018-08-20T02:54:27.915Z,98299.19
2018-08-20T02:56:58.897Z,98302.56
2018-08-20T02:59:29.617Z,98304.88
2018-08-20T03:02:00.301Z,98306.02
2018-08-20T03:04:32.875Z,98304.70
2018-08-20T03:07:03.585Z,98302.67
2018-08-20T03:09:36.745Z,98311.59
2018-08-20T03:12:07.604Z,98303.77
2018-08-20T03:14:38.301Z,98307.27
2018-08-20T03:17:10.199Z,98306.90
2018-08-20T03:19:40.648Z,98306.39
2018-08-20T03:22:11.087Z,98312.52
2018-08-20T03:24:42.038Z,98311.78
2018-08-20T03:27:13.344Z,98311.20
2018-08-20T03:29:44.037Z,98312.36
2018-08-20T03:32:19.975Z,98310.30
2018-08-20T03:34:51.423Z,98304.53
2018-08-20T03:37:21.625Z,98311.14
2018-08-20T03:39:52.054Z,98306.35
2018-08-20T03:42:23.756Z,98312.10
2018-08-20T03:44:54.497Z,98308.98
2018-08-20T03:47:25.820Z,98310.41
2018-08-20T03:49:56.361Z,98318.80
2018-08-20T03:52:44.518Z,98322.24
2018-08-20T03:55:16.127Z,98328.56
2018-08-20T03:57:53.513Z,98323.17
2018-08-20T04:00:25.126Z,98321.03
2018-08-20T04:02:56.238Z,98325.63
2018-08-20T04:08:17.747Z,98315.27
2018-08-20T04:11:00.123Z,98318.19
2018-08-20T04:13:32.213Z,98313.42
2018-08-20T04:16:03.018Z,98317.50
2018-08-20T04:18:33.626Z,98319.65
2018-08-20T04:21:05.491Z,98321.86
2018-08-20T04:23:35.950Z,98314.56
2018-08-20T04:26:06.979Z,98311.09
2018-08-20T04:28:39.097Z,98311.78
2018-08-20T04:31:13.166Z,98317.05
2018-08-20T04:33:43.979Z,98320.81
2018-08-20T04:36:14.058Z,98317.61
2018-08-20T04:38:45.654Z,98313.34
2018-08-20T04:41:17.718Z,98315.31
2018-08-20T04:43:48.374Z,98311.92
2018-08-20T04:46:20.542Z,98317.50
2018-08-20T04:48:50.766Z,98316.19
2018-08-20T04:51:21.872Z,98317.89
2018-08-20T04:53:52.918Z,98319.69
2018-08-20T04:56:24.062Z,98320.20
2018-08-20T04:58:56.158Z,98314.76
2018-08-20T05:01:26.647Z,98308.63
2018-08-20T05:03:57.730Z,98320.80
2018-08-20T05:06:28.260Z,98320.80
2018-08-20T05:08:58.492Z,98318.89
2018-08-20T05:11:29.554Z,98322.41
2018-08-20T05:14:00.622Z,98324.69
2018-08-20T05:16:32.283Z,98330.72
2018-08-20T05:19:03.423Z,98330.25
2018-08-20T05:21:33.560Z,98328.49
2018-08-20T05:24:04.376Z,98331.52
2018-08-20T05:26:35.334Z,98325.75
2018-08-20T05:29:06.414Z,98333.86
2018-08-20T05:31:37.995Z,98333.41
2018-08-20T05:34:08.981Z,98333.39
2018-08-20T05:36:39.789Z,98337.36
2018-08-20T05:39:12.010Z,98341.58
2018-08-20T05:41:49.529Z,98346.73
2018-08-20T05:44:23.310Z,98345.38
2018-08-20T05:46:54.680Z,98346.30
2018-08-20T05:49:25.156Z,98349.13
2018-08-20T05:52:03.566Z,98355.98
2018-08-20T05:54:33.867Z,98355.59
2018-08-20T05:57:06.197Z,98356.33
2018-08-20T05:59:37.508Z,98355.67
2018-08-20T06:02:09.992Z,98351.28
2018-08-20T06:04:41.427Z,98355.53
2018-08-20T06:07:12.670Z,98357.07
2018-08-20T06:09:43.406Z,98361.17
2018-08-20T06:12:14.037Z,98360.95
2018-08-20T06:14:44.530Z,98361.71
2018-08-20T06:17:14.646Z,98366.62
2018-08-20T06:19:45.338Z,98369.10
2018-08-20T06:22:16.364Z,98363.96
2018-08-20T06:24:47.938Z,98370.97
2018-08-20T06:27:18.226Z,98376.80
2018-08-20T06:29:49.281Z,98371.86
2018-08-20T06:32:20.064Z,98376.64
2018-08-20T06:34:50.221Z,98374.62
2018-08-20T06:37:21.410Z,98366.66
2018-08-20T06:39:53.224Z,98373.70
2018-08-20T06:42:23.809Z,98370.69
2018-08-20T06:44:55.365Z,98375.20
2018-08-20T06:47:27.500Z,98373.94
2018-08-20T06:49:59.422Z,98371.67
2018-08-20T06:52:29.592Z,98374.52
2018-08-20T06:55:00.472Z,98375.02
2018-08-20T06:57:31.495Z,98377.37
2018-08-20T07:00:01.936Z,98376.03
2018-08-20T07:02:33.516Z,98368.59
2018-08-20T07:05:05.541Z,98367.75
2018-08-20T07:07:38.347Z,98366.82
2018-08-20T07:10:15.693Z,98369.19
2018-08-20T07:12:45.908Z,98373.34
2018-08-20T07:15:17.383Z,98372.89
2018-08-20T07:17:48.308Z,98372.80
2018-08-20T07:20:18.666Z,98366.56
2018-08-20T07:22:49.888Z,98368.95
2018-08-20T07:25:20.427Z,98369.16
2018-08-20T07:27:51.999Z,98370.84
2018-08-20T07:30:22.731Z,98371.55
2018-08-20T07:32:53.040Z,98375.16
2018-08-20T07:35:24.027Z,98380.46
2018-08-20T07:37:55.271Z,98373.14
2018-08-20T07:40:26.646Z,98378.55
2018-08-20T07:42:56.917Z,98385.89
2018-08-20T07:45:28.303Z,98385.75
2018-08-20T07:47:59.113Z,98387.10
2018-08-20T07:50:29.203Z,98380.65
2018-08-20T07:53:00.011Z,98381.76
2018-08-20T07:55:30.296Z,98382.16
2018-08-20T07:58:01.511Z,98383.89
2018-08-20T08:00:31.720Z,98384.63
2018-08-20T08:03:02.529Z,98378.19
2018-08-20T08:05:32.644Z,98383.20
2018-08-20T08:08:04.275Z,98388.77
2018-08-20T08:10:34.547Z,98385.90
2018-08-20T08:13:05.643Z,98389.60
2018-08-20T08:15:37.505Z,98385.25
2018-08-20T08:18:12.465Z,98391.13
2018-08-20T08:20:43.099Z,98384.98
2018-08-20T08:23:14.213Z,98379.80
2018-08-20T08:25:45.617Z,98378.92
2018-08-20T08:28:16.568Z,98376.89
2018-08-20T08:30:48.698Z,98379.49
2018-08-20T08:33:20.427Z,98382.38
2018-08-20T08:35:51.246Z,98385.16
2018-08-20T08:38:21.546Z,98384.54
2018-08-20T08:40:53.176Z,98377.42
2018-08-20T08:43:23.826Z,98374.05
2018-08-20T08:45:55.971Z,98376.48
2018-08-20T08:48:27.318Z,98374.76
2018-08-20T08:50:57.578Z,98374.05
2018-08-20T08:53:29.784Z,98366.25
2018-08-20T08:56:01.109Z,98370.56
2018-08-20T08:58:31.838Z,98372.39
2018-08-20T09:01:02.883Z,98368.30
2018-08-20T09:03:34.498Z,98371.95
2018-08-20T09:06:06.293Z,98373.39
2018-08-20T09:08:36.842Z,98372.41
2018-08-20T09:11:07.440Z,98364.00
2018-08-20T09:13:38.580Z,98363.23
2018-08-20T09:16:08.695Z,98364.78
2018-08-20T09:18:39.406Z,98371.72
2018-08-20T09:21:10.457Z,98374.94
2018-08-20T09:23:43.060Z,98368.52
2018-08-20T09:26:14.106Z,98367.30
2018-08-20T09:28:44.630Z,98370.14
2018-08-20T09:31:18.562Z,98374.27
2018-08-20T09:33:49.674Z,98368.26
2018-08-20T09:36:19.882Z,98376.31
2018-08-20T09:38:50.952Z,98372.17
2018-08-20T09:41:21.168Z,98371.16
2018-08-20T09:43:52.949Z,98368.97
2018-08-20T09:46:24.014Z,98372.08
2018-08-20T09:48:55.218Z,98368.77
2018-08-20T09:51:26.457Z,98368.30
2018-08-20T09:53:58.830Z,98363.64
2018-08-20T09:56:32.077Z,98369.87
2018-08-20T09:59:03.795Z,98366.64
2018-08-20T10:01:35.036Z,98365.05
2018-08-20T10:04:06.406Z,98355.75
2018-08-20T10:06:36.844Z,98360.28
2018-08-20T10:09:07.833Z,98355.95
2018-08-20T10:11:39.684Z,98357.64
2018-08-20T10:14:11.770Z,98348.39
2018-08-20T10:16:42.243Z,98355.50
2018-08-20T10:19:14.852Z,98347.01
2018-08-20T10:21:45.931Z,98343.83
2018-08-20T10:24:16.628Z,98343.33
2018-08-20T10:26:46.637Z,98339.52
2018-08-20T10:29:18.282Z,98344.02
2018-08-20T10:31:49.551Z,98338.03
2018-08-20T10:34:19.542Z,98338.42
2018-08-20T10:36:49.868Z,98339.27
2018-08-20T10:39:20.615Z,98335.98
2018-08-20T10:41:52.528Z,98337.67
2018-08-20T10:44:22.970Z,98334.55
2018-08-20T10:46:53.274Z,98330.61
2018-08-20T10:49:24.874Z,98329.95
2018-08-20T10:51:55.930Z,98327.83
2018-08-20T10:54:27.501Z,98338.67
2018-08-20T10:56:58.737Z,98325.95
2018-08-20T10:59:28.982Z,98324.92
2018-08-20T11:01:59.439Z,98315.99
2018-08-20T11:04:30.665Z,98315.77
2018-08-20T11:07:00.828Z,98310.42
2018-08-20T11:09:32.198Z,98309.80
2018-08-20T11:12:03.536Z,98309.86
2018-08-20T11:14:34.408Z,98310.44
2018-08-20T11:17:05.833Z,98314.24
2018-08-20T11:19:38.001Z,98311.38
2018-08-20T11:22:09.183Z,98304.73
2018-08-20T11:24:39.718Z,98299.13
2018-08-20T11:27:10.795Z,98293.48
2018-08-20T11:29:41.084Z,98294.13
2018-08-20T11:32:11.849Z,98295.53
2018-08-20T11:34:43.551Z,98296.73
2018-08-20T11:37:13.996Z,98292.13
2018-08-20T11:39:45.146Z,98290.94
2018-08-20T11:42:16.190Z,98286.34
2018-08-20T11:44:47.121Z,98285.45
2018-08-20T11:47:19.117Z,98274.08
2018-08-20T11:49:50.027Z,98264.86
2018-08-20T11:52:20.552Z,98262.57
2018-08-20T11:54:51.607Z,98266.02
2018-08-20T11:57:23.533Z,98264.94
2018-08-20T11:59:54.953Z,98271.20
2018-08-20T12:02:26.331Z,98276.30
2018-08-20T12:04:56.860Z,98266.67
2018-08-20T12:07:28.277Z,98265.44
2018-08-20T12:10:00.641Z,98269.36
2018-08-20T12:12:30.751Z,98277.13
2018-08-20T12:15:00.818Z,98258.27
2018-08-20T12:17:31.351Z,98254.16
2018-08-20T12:20:02.452Z,98248.37
2018-08-20T12:22:32.676Z,98244.21
2018-08-20T12:25:03.317Z,98253.78
2018-08-20T12:27:35.116Z,98255.98
2018-08-20T12:30:09.149Z,98253.94
2018-08-20T12:32:39.984Z,98254.80
2018-08-20T12:35:10.767Z,98260.45
2018-08-20T12:37:42.851Z,98249.42
2018-08-20T12:40:14.114Z,98257.88
2018-08-20T12:42:44.378Z,98250.02
2018-08-20T12:45:14.759Z,98239.80
2018-08-20T12:47:46.243Z,98237.31
2018-08-20T12:50:17.075Z,98229.39
2018-08-20T12:52:48.468Z,98232.62
2018-08-20T12:55:18.547Z,98224.69
2018-08-20T12:57:49.512Z,98233.66
2018-08-20T13:00:21.395Z,98227.37
2018-08-20T13:02:52.422Z,98229.39
2018-08-20T13:05:23.248Z,98232.05
2018-08-20T13:07:53.828Z,98223.37
2018-08-20T13:10:24.366Z,98221.61
2018-08-20T13:12:54.546Z,98220.30
2018-08-20T13:15:25.586Z,98222.41
2018-08-20T13:17:56.365Z,98217.92
2018-08-20T13:20:26.771Z,98233.05
2018-08-20T13:22:57.930Z,98220.82
2018-08-20T13:25:28.874Z,98209.80
2018-08-20T13:27:59.884Z,98208.12
2018-08-20T13:30:31.129Z,98221.69
2018-08-20T13:33:01.250Z,98213.78
2018-08-20T13:35:34.312Z,98221.08
2018-08-20T13:38:07.083Z,98212.84
2018-08-20T13:40:40.122Z,98213.22
2018-08-20T13:43:11.635Z,98200.69
2018-08-20T13:45:42.445Z,98197.52
2018-08-20T13:48:13.753Z,98202.36
2018-08-20T13:50:46.987Z,98207.38
2018-08-20T13:53:18.271Z,98200.30
2018-08-20T13:55:48.822Z,98201.63
2018-08-20T13:58:19.877Z,98198.17
2018-08-20T14:00:50.996Z,98198.00
2018-08-20T14:03:21.910Z,98190.00
2018-08-20T14:05:51.992Z,98187.19
2018-08-20T14:08:22.230Z,98196.80
2018-08-20T14:10:53.450Z,98197.91
2018-08-20T14:13:24.396Z,98204.80
2018-08-20T14:15:54.870Z,98208.09
2018-08-20T14:18:25.248Z,98207.48
2018-08-20T14:21:17.301Z,98201.63
2018-08-20T14:23:49.206Z,98199.68
2018-08-20T14:26:20.048Z,98191.98
2018-08-20T14:28:50.460Z,98182.11
2018-08-20T14:31:20.794Z,98184.70
2018-08-20T14:33:52.613Z,98182.57
2018-08-20T14:36:23.490Z,98186.13
2018-08-20T14:38:53.638Z,98180.10
2018-08-20T14:41:23.752Z,98190.72
2018-08-20T14:43:55.569Z,98188.40
2018-08-20T14:46:25.858Z,98174.94
2018-08-20T14:48:56.958Z,98166.74
2018-08-20T14:51:27.110Z,98163.13
2018-08-20T14:53:57.692Z,98157.33
2018-08-20T14:56:28.986Z,98160.77
2018-08-20T14:59:00.956Z,98169.85
2018-08-20T15:01:33.674Z,98161.18
2018-08-20T15:04:04.675Z,98154.58
2018-08-20T15:06:42.181Z,98149.38
2018-08-20T15:09:13.098Z,98156.08
2018-08-20T15:11:44.421Z,98159.30
2018-08-20T15:14:14.548Z,98150.33
2018-08-20T15:16:44.753Z,98157.66
2018-08-20T15:19:15.160Z,98154.52
2018-08-20T15:21:49.132Z,98135.88
2018-08-20T15:24:20.656Z,98160.85
2018-08-20T15:26:52.296Z,98154.23
2018-08-20T15:29:23.276Z,98157.14
2018-08-20T15:31:53.892Z,98163.65
2018-08-20T15:34:26.179Z,98162.89
2018-08-20T15:36:56.637Z,98167.62
2018-08-20T15:39:27.630Z,98162.83
2018-08-20T15:41:59.234Z,98167.97
2018-08-20T15:44:29.653Z,98149.09
2018-08-20T15:47:01.444Z,98164.05
2018-08-20T15:49:33.005Z,98172.33
2018-08-20T15:52:03.312Z,98162.87
2018-08-20T15:54:33.891Z,98159.54
2018-08-20T15:57:04.923Z,98156.98
2018-08-20T15:59:36.264Z,98161.59
2018-08-20T16:02:06.790Z,98150.28
2018-08-20T16:04:38.234Z,98147.66
2018-08-20T16:07:09.500Z,98145.41
2018-08-20T16:09:41.132Z,98145.75
2018-08-20T16:12:12.403Z,98150.03
2018-08-20T16:14:43.761Z,98155.92
2018-08-20T16:17:14.549Z,98156.34
2018-08-20T16:19:45.587Z,98163.81
2018-08-20T16:22:16.930Z,98161.06
2018-08-20T16:24:47.516Z,98156.44
2018-08-20T16:27:19.062Z,98156.67
2018-08-20T16:29:49.566Z,98151.73
2018-08-20T16:32:19.997Z,98154.20
2018-08-20T16:34:50.162Z,98154.00
2018-08-20T16:37:20.432Z,98156.69
2018-08-20T16:39:50.613Z,98148.53
2018-08-20T16:42:22.250Z,98158.56
2018-08-20T16:44:53.455Z,98162.08
2018-08-20T16:47:24.477Z,98159.67
2018-08-20T16:49:59.044Z,98166.88
2018-08-20T16:52:30.022Z,98163.13
2018-08-20T16:55:00.300Z,98162.30
2018-08-20T16:57:30.431Z,98170.39
2018-08-20T17:00:01.674Z,98168.36
2018-08-20T17:02:33.124Z,98171.00
2018-08-20T17:05:05.021Z,98173.63
2018-08-20T17:07:37.444Z,98166.52
2018-08-20T17:10:11.384Z,98164.78
2018-08-20T17:12:44.299Z,98163.66
2018-08-20T17:15:17.531Z,98165.58
2018-08-20T17:17:48.002Z,98161.34
2018-08-20T17:20:18.698Z,98161.76
2018-08-20T17:22:51.357Z,98165.58
2018-08-20T17:25:22.355Z,98170.84
2018-08-20T17:28:02.810Z,98166.03
2018-08-20T17:30:33.945Z,98168.64
2018-08-20T17:33:05.495Z,98166.08
2018-08-20T17:35:43.314Z,98168.99
2018-08-20T17:38:14.973Z,98168.62
2018-08-20T17:40:47.456Z,98168.04
2018-08-20T17:43:19.960Z,98170.84
2018-08-20T17:45:51.461Z,98168.14
2018-08-20T17:48:29.122Z,98173.09
2018-08-20T17:50:59.764Z,98177.95
2018-08-20T17:53:42.540Z,98177.51
2018-08-20T17:56:14.266Z,98175.84
2018-08-20T17:58:45.778Z,98177.68
2018-08-20T18:01:21.807Z,98181.77
2018-08-20T18:03:52.131Z,98178.08
2018-08-20T18:06:55.863Z,98180.79
2018-08-20T18:09:31.136Z,98184.84
2018-08-20T18:12:03.487Z,98199.93
2018-08-20T18:14:35.579Z,98195.74
2018-08-20T18:17:06.547Z,98199.62
2018-08-20T18:19:38.201Z,98196.58
2018-08-20T18:22:08.288Z,98198.12
2018-08-20T18:24:38.871Z,98202.62
2018-08-20T18:27:09.261Z,98201.60
2018-08-20T18:29:40.824Z,98212.50
2018-08-20T18:32:11.660Z,98211.48
2018-08-20T18:34:42.796Z,98224.35
2018-08-20T18:37:14.196Z,98225.37
2018-08-20T18:39:48.739Z,98237.43
2018-08-20T18:42:20.450Z,98237.59
2018-08-20T18:44:51.620Z,98235.07
2018-08-20T18:47:22.764Z,98241.23
2018-08-20T18:49:59.448Z,98238.75
2018-08-20T18:52:31.950Z,98248.94
2018-08-20T18:55:02.990Z,98253.76
2018-08-20T18:57:38.564Z,98264.13
2018-08-20T19:00:15.000Z,98268.22
2018-08-20T19:02:52.543Z,98269.41
2018-08-20T19:05:25.075Z,98270.03
2018-08-20T19:08:00.720Z,98273.17
2018-08-20T19:10:32.764Z,98274.48
2018-08-20T19:13:04.867Z,98276.81
2018-08-20T19:15:43.162Z,98281.94
2018-08-20T19:18:18.344Z,98280.74
2018-08-20T19:20:49.219Z,98280.33
2018-08-20T19:23:19.991Z,98282.45
2018-08-20T19:25:52.396Z,98290.41
2018-08-20T19:28:23.729Z,98284.34
2018-08-20T19:30:56.206Z,98283.30
2018-08-20T19:33:31.186Z,98282.75
2018-08-20T19:36:03.315Z,98284.86
2018-08-20T19:38:34.230Z,98285.43
2018-08-20T19:41:08.731Z,98284.86
2018-08-20T19:43:46.879Z,98285.34
2018-08-20T19:46:31.489Z,98291.88
2018-08-20T19:49:07.435Z,98292.42
2018-08-20T19:51:39.701Z,98288.20
2018-08-20T19:54:13.600Z,98292.98
2018-08-20T19:56:43.897Z,98294.75
2018-08-20T19:59:18.740Z,98292.00
2018-08-20T20:01:50.184Z,98300.70
2018-08-20T20:04:20.890Z,98301.45
2018-08-20T20:06:52.232Z,98300.68
2018-08-20T20:09:23.053Z,98303.31
2018-08-20T20:11:53.548Z,98300.45
2018-08-20T20:14:24.462Z,98294.42
2018-08-20T20:16:55.608Z,98297.52
2018-08-20T20:19:26.043Z,98303.83
2018-08-20T20:21:57.929Z,98304.04
2018-08-20T20:24:28.038Z,98303.98
2018-08-20T20:26:59.017Z,98306.70
2018-08-20T20:29:29.694Z,98306.42
2018-08-20T20:31:59.831Z,98303.95
2018-08-20T20:34:31.457Z,98306.90
2018-08-20T20:37:03.857Z,98315.78
2018-08-20T20:39:34.107Z,98309.50
2018-08-20T20:42:05.176Z,98313.08
2018-08-20T20:44:35.564Z,98314.11
2018-08-20T20:47:06.924Z,98319.61
2018-08-20T20:49:37.066Z,98324.41
2018-08-20T20:52:11.255Z,98322.38
2018-08-20T20:54:42.615Z,98331.80
2018-08-20T20:57:13.060Z,98322.97
2018-08-20T20:59:45.065Z,98333.27
2018-08-20T21:02:16.308Z,98336.31
2018-08-20T21:04:47.240Z,98342.83
2018-08-20T21:07:24.705Z,98345.74
2018-08-20T21:09:55.720Z,98344.69
2018-08-20T21:12:27.710Z,98344.91
2018-08-20T21:14:57.966Z,98351.88
2018-08-20T21:19:58.147Z,98361.56
2018-08-20T21:22:28.951Z,98363.38
2018-08-20T21:24:59.558Z,98363.30
2018-08-20T21:27:30.000Z,98366.19
2018-08-20T21:30:01.751Z,98366.00
2018-08-20T21:32:32.929Z,98370.40
2018-08-20T21:35:03.987Z,98373.77
2018-08-20T21:37:35.397Z,98373.46
2018-08-20T21:40:05.624Z,98379.63
2018-08-20T21:42:42.672Z,98383.88
2018-08-20T21:45:13.747Z,98388.80
2018-08-20T21:47:44.346Z,98382.54
2018-08-20T21:50:14.470Z,98384.00
2018-08-20T21:52:48.148Z,98382.33
2018-08-20T21:55:18.521Z,98390.42
2018-08-20T21:57:56.355Z,98392.77
2018-08-20T22:00:29.748Z,98389.48
2018-08-20T22:03:02.809Z,98387.25
2018-08-20T22:05:33.771Z,98392.72
2018-08-20T22:08:04.408Z,98395.13
2018-08-20T22:10:35.574Z,98404.34
2018-08-20T22:13:06.446Z,98401.30
2018-08-20T22:15:38.267Z,98402.63
2018-08-20T22:18:08.564Z,98400.63
2018-08-20T22:20:39.662Z,98399.24
2018-08-20T22:23:24.950Z,98404.84
2018-08-20T22:25:42.113Z,98402.30
2018-08-20T22:28:12.757Z,98405.95
2018-08-20T22:30:48.955Z,98397.58
2018-08-20T22:33:20.806Z,98399.27
2018-08-20T22:35:51.246Z,98399.89
2018-08-20T22:38:21.881Z,98395.50
2018-08-20T22:40:51.955Z,98395.55
2018-08-20T22:43:22.722Z,98394.70
2018-08-20T22:45:53.580Z,98395.90
2018-08-20T22:48:23.726Z,98395.25
2018-08-20T22:51:15.429Z,98400.76
2018-08-20T22:53:53.576Z,98403.28
2018-08-20T22:56:29.849Z,98407.80
2018-08-20T22:59:08.207Z,98404.78
2018-08-20T23:01:39.336Z,98417.13
2018-08-20T23:04:10.607Z,98407.80
2018-08-20T23:06:43.464Z,98415.25
2018-08-20T23:09:27.711Z,98405.92
2018-08-20T23:11:58.929Z,98411.99
2018-08-20T23:14:30.064Z,98412.98
2018-08-20T23:17:00.502Z,98412.02
2018-08-20T23:19:31.378Z,98413.97
2018-08-20T23:22:03.160Z,98417.13
2018-08-20T23:24:34.095Z,98417.39
2018-08-20T23:27:04.831Z,98422.55
2018-08-20T23:29:34.892Z,98420.92
2018-08-20T23:32:06.047Z,98422.09
2018-08-20T23:34:37.287Z,98425.85
2018-08-20T23:37:07.676Z,98427.25
2018-08-20T23:39:38.585Z,98423.16
2018-08-20T23:42:08.792Z,98420.07
2018-08-20T23:44:40.025Z,98428.63
2018-08-20T23:47:10.607Z,98424.91
2018-08-20T23:49:42.600Z,98424.29
2018-08-20T23:52:13.245Z,98423.41
2018-08-20T23:54:44.890Z,98426.59
2018-08-20T23:57:16.926Z,98421.28
2018-08-20T23:59:49.190Z,98429.55
